sensor_id;sensor_type;location;lat;lon;timestamp;pressure;altitude;pressure_sealevel;temperature;humidity
59170;BME280;52474;52.236;5.114;2024-01-16T00:01:45;100956.22;;;-0.17;100.00
59170;BME280;52474;52.236;5.114;2024-01-16T00:04:11;100966.88;;;-0.01;100.00
59170;BME280;52474;52.236;5.114;2024-01-16T00:06:40;100933.47;;;-0.12;100.00
59170;BME280;52474;52.236;5.114;2024-01-16T00:09:06;100906.16;;;-0.24;100.00
59170;BME280;52474;52.236;5.114;2024-01-16T00:11:32;100939.53;;;0.09;100.00
59170;BME280;52474;52.236;5.114;2024-01-16T00:13:57;100928.47;;;0.04;100.00
59170;BME280;52474;52.236;5.114;2024-01-16T00:16:23;100925.66;;;-0.12;100.00
59170;BME280;52474;52.236;5.114;2024-01-16T00:18:49;100901.56;;;-0.39;100.00
59170;BME280;52474;52.236;5.114;2024-01-16T00:21:14;100922.28;;;-0.37;100.00
59170;BME280;52474;52.236;5.114;2024-01-16T00:23:40;100934.94;;;-0.28;100.00
59170;BME280;52474;52.236;5.114;2024-01-16T00:26:05;100945.63;;;-0.34;100.00
59170;BME280;52474;52.236;5.114;2024-01-16T00:28:31;100941.44;;;-0.38;100.00
59170;BME280;52474;52.236;5.114;2024-01-16T00:30:57;100931.06;;;-0.40;100.00
59170;BME280;52474;52.236;5.114;2024-01-16T00:33:23;100932.09;;;-0.44;100.00
59170;BME280;52474;52.236;5.114;2024-01-16T00:35:49;100917.94;;;-0.59;100.00
59170;BME280;52474;52.236;5.114;2024-01-16T00:38:15;100933.28;;;-0.53;100.00
59170;BME280;52474;52.236;5.114;2024-01-16T00:40:40;100934.81;;;-0.47;100.00
59170;BME280;52474;52.236;5.114;2024-01-16T00:43:06;100910.97;;;-0.58;100.00
59170;BME280;52474;52.236;5.114;2024-01-16T00:45:32;100928.84;;;-0.49;100.00
59170;BME280;52474;52.236;5.114;2024-01-16T00:47:57;100938.03;;;-0.40;100.00
59170;BME280;52474;52.236;5.114;2024-01-16T00:50:23;100900.94;;;-0.69;100.00
59170;BME280;52474;52.236;5.114;2024-01-16T00:52:50;100950.19;;;-0.41;100.00
59170;BME280;52474;52.236;5.114;2024-01-16T00:55:16;100949.34;;;-0.41;100.00
59170;BME280;52474;52.236;5.114;2024-01-16T00:57:41;100918.66;;;-0.55;100.00
59170;BME280;52474;52.236;5.114;2024-01-16T01:00:07;100937.47;;;-0.49;100.00
59170;BME280;52474;52.236;5.114;2024-01-16T01:02:35;100916.34;;;-0.63;100.00
59170;BME280;52474;52.236;5.114;2024-01-16T01:05:00;100941.22;;;-0.56;100.00
59170;BME280;52474;52.236;5.114;2024-01-16T01:07:26;100925.09;;;-0.66;100.00
59170;BME280;52474;52.236;5.114;2024-01-16T01:09:52;100961.06;;;-0.53;100.00
59170;BME280;52474;52.236;5.114;2024-01-16T01:12:18;100964.38;;;-0.50;100.00
59170;BME280;52474;52.236;5.114;2024-01-16T01:14:43;100948.34;;;-0.61;100.00
59170;BME280;52474;52.236;5.114;2024-01-16T01:17:09;100939.25;;;-0.73;100.00
59170;BME280;52474;52.236;5.114;2024-01-16T01:19:35;100955.88;;;-0.53;100.00
59170;BME280;52474;52.236;5.114;2024-01-16T01:22:00;100952.28;;;-0.51;100.00
59170;BME280;52474;52.236;5.114;2024-01-16T01:24:26;100968.84;;;-0.30;100.00
59170;BME280;52474;52.236;5.114;2024-01-16T01:26:52;100971.16;;;-0.22;100.00
59170;BME280;52474;52.236;5.114;2024-01-16T01:29:17;100967.03;;;-0.28;100.00
59170;BME280;52474;52.236;5.114;2024-01-16T01:31:45;100991.03;;;-0.19;100.00
59170;BME280;52474;52.236;5.114;2024-01-16T01:34:12;100973.78;;;-0.22;100.00
59170;BME280;52474;52.236;5.114;2024-01-16T01:36:38;100988.72;;;-0.05;100.00
59170;BME280;52474;52.236;5.114;2024-01-16T01:39:04;100998.41;;;0.13;100.00
59170;BME280;52474;52.236;5.114;2024-01-16T01:41:29;101000.59;;;0.24;100.00
59170;BME280;52474;52.236;5.114;2024-01-16T01:43:55;100967.31;;;0.10;100.00
59170;BME280;52474;52.236;5.114;2024-01-16T01:46:21;100993.69;;;0.23;100.00
59170;BME280;52474;52.236;5.114;2024-01-16T01:48:47;100987.66;;;0.23;100.00
59170;BME280;52474;52.236;5.114;2024-01-16T01:51:14;100981.19;;;0.31;100.00
59170;BME280;52474;52.236;5.114;2024-01-16T01:53:42;100978.78;;;0.27;100.00
59170;BME280;52474;52.236;5.114;2024-01-16T01:56:11;100973.88;;;0.19;100.00
59170;BME280;52474;52.236;5.114;2024-01-16T01:58:40;100975.22;;;0.07;100.00
59170;BME280;52474;52.236;5.114;2024-01-16T02:01:06;100947.94;;;-0.05;100.00
59170;BME280;52474;52.236;5.114;2024-01-16T02:03:40;100976.97;;;0.07;100.00
59170;BME280;52474;52.236;5.114;2024-01-16T02:06:07;100944.66;;;-0.10;100.00
59170;BME280;52474;52.236;5.114;2024-01-16T02:08:33;100958.88;;;0.04;100.00
59170;BME280;52474;52.236;5.114;2024-01-16T02:10:58;100967.34;;;0.09;100.00
59170;BME280;52474;52.236;5.114;2024-01-16T02:13:24;100954.47;;;0.06;100.00
59170;BME280;52474;52.236;5.114;2024-01-16T02:15:50;100986.69;;;0.25;100.00
59170;BME280;52474;52.236;5.114;2024-01-16T02:18:17;100983.94;;;0.28;100.00
59170;BME280;52474;52.236;5.114;2024-01-16T02:20:44;100984.59;;;0.33;100.00
59170;BME280;52474;52.236;5.114;2024-01-16T02:23:10;100971.53;;;0.35;100.00
59170;BME280;52474;52.236;5.114;2024-01-16T02:25:38;100968.03;;;0.34;100.00
59170;BME280;52474;52.236;5.114;2024-01-16T02:28:04;100965.56;;;0.31;100.00
59170;BME280;52474;52.236;5.114;2024-01-16T02:30:30;100936.63;;;0.17;100.00
59170;BME280;52474;52.236;5.114;2024-01-16T02:32:56;100890.22;;;-0.16;100.00
59170;BME280;52474;52.236;5.114;2024-01-16T02:35:22;100956.31;;;0.24;100.00
59170;BME280;52474;52.236;5.114;2024-01-16T02:37:47;100918.13;;;0.03;100.00
59170;BME280;52474;52.236;5.114;2024-01-16T02:40:13;100958.88;;;0.26;100.00
59170;BME280;52474;52.236;5.114;2024-01-16T02:42:39;100952.81;;;0.25;100.00
59170;BME280;52474;52.236;5.114;2024-01-16T02:45:05;100964.72;;;0.31;100.00
59170;BME280;52474;52.236;5.114;2024-01-16T02:47:31;100973.19;;;0.36;100.00
59170;BME280;52474;52.236;5.114;2024-01-16T02:49:58;100976.66;;;0.36;100.00
59170;BME280;52474;52.236;5.114;2024-01-16T02:52:23;100952.03;;;0.23;100.00
59170;BME280;52474;52.236;5.114;2024-01-16T02:54:49;100966.13;;;0.39;100.00
59170;BME280;52474;52.236;5.114;2024-01-16T02:57:15;100979.06;;;0.41;100.00
59170;BME280;52474;52.236;5.114;2024-01-16T02:59:46;100967.94;;;0.37;100.00
59170;BME280;52474;52.236;5.114;2024-01-16T03:02:12;100942.41;;;0.25;100.00
59170;BME280;52474;52.236;5.114;2024-01-16T03:04:39;100969.63;;;0.38;100.00
59170;BME280;52474;52.236;5.114;2024-01-16T03:07:05;100956.91;;;0.31;100.00
59170;BME280;52474;52.236;5.114;2024-01-16T03:09:31;100945.78;;;0.27;100.00
59170;BME280;52474;52.236;5.114;2024-01-16T03:11:57;100962.66;;;0.39;100.00
59170;BME280;52474;52.236;5.114;2024-01-16T03:14:23;100972.03;;;0.43;100.00
59170;BME280;52474;52.236;5.114;2024-01-16T03:16:49;100956.53;;;0.40;100.00
59170;BME280;52474;52.236;5.114;2024-01-16T03:19:14;100955.63;;;0.41;100.00
59170;BME280;52474;52.236;5.114;2024-01-16T03:21:40;100955.75;;;0.38;100.00
59170;BME280;52474;52.236;5.114;2024-01-16T03:24:06;100929.69;;;0.17;100.00
59170;BME280;52474;52.236;5.114;2024-01-16T03:26:32;100958.59;;;0.32;100.00
59170;BME280;52474;52.236;5.114;2024-01-16T03:28:58;100960.50;;;0.28;100.00
59170;BME280;52474;52.236;5.114;2024-01-16T03:31:24;100943.59;;;0.16;100.00
59170;BME280;52474;52.236;5.114;2024-01-16T03:33:50;100956.25;;;0.26;100.00
59170;BME280;52474;52.236;5.114;2024-01-16T03:36:15;100908.25;;;-0.11;100.00
59170;BME280;52474;52.236;5.114;2024-01-16T03:38:42;100931.72;;;0.09;100.00
59170;BME280;52474;52.236;5.114;2024-01-16T03:41:08;100967.69;;;0.21;100.00
59170;BME280;52474;52.236;5.114;2024-01-16T03:43:34;100927.59;;;0.05;100.00
59170;BME280;52474;52.236;5.114;2024-01-16T03:46:00;100932.88;;;0.02;100.00
59170;BME280;52474;52.236;5.114;2024-01-16T03:48:26;100943.22;;;0.05;100.00
59170;BME280;52474;52.236;5.114;2024-01-16T03:50:51;100951.53;;;0.13;100.00
59170;BME280;52474;52.236;5.114;2024-01-16T03:53:17;100946.38;;;0.12;100.00
59170;BME280;52474;52.236;5.114;2024-01-16T03:55:42;100931.16;;;0.03;100.00
59170;BME280;52474;52.236;5.114;2024-01-16T03:58:08;100952.34;;;0.15;100.00
59170;BME280;52474;52.236;5.114;2024-01-16T04:00:34;100966.81;;;0.23;100.00
59170;BME280;52474;52.236;5.114;2024-01-16T04:03:00;100934.72;;;0.00;100.00
59170;BME280;52474;52.236;5.114;2024-01-16T04:05:25;100943.06;;;0.08;100.00
59170;BME280;52474;52.236;5.114;2024-01-16T04:07:51;100945.59;;;0.10;100.00
59170;BME280;52474;52.236;5.114;2024-01-16T04:10:17;100926.97;;;-0.02;100.00
59170;BME280;52474;52.236;5.114;2024-01-16T04:12:43;100942.81;;;0.14;100.00
59170;BME280;52474;52.236;5.114;2024-01-16T04:15:09;100966.69;;;0.26;100.00
59170;BME280;52474;52.236;5.114;2024-01-16T04:17:35;100943.88;;;0.10;100.00
59170;BME280;52474;52.236;5.114;2024-01-16T04:20:00;100957.16;;;0.25;100.00
59170;BME280;52474;52.236;5.114;2024-01-16T04:22:26;100919.94;;;0.01;100.00
59170;BME280;52474;52.236;5.114;2024-01-16T04:24:52;100954.81;;;0.18;100.00
59170;BME280;52474;52.236;5.114;2024-01-16T04:27:18;100953.97;;;0.18;100.00
59170;BME280;52474;52.236;5.114;2024-01-16T04:29:44;100953.19;;;0.16;100.00
59170;BME280;52474;52.236;5.114;2024-01-16T04:32:09;100950.53;;;0.17;100.00
59170;BME280;52474;52.236;5.114;2024-01-16T04:34:35;100936.81;;;0.12;100.00
59170;BME280;52474;52.236;5.114;2024-01-16T04:37:00;100939.50;;;0.11;100.00
59170;BME280;52474;52.236;5.114;2024-01-16T04:39:26;100914.19;;;-0.08;100.00
59170;BME280;52474;52.236;5.114;2024-01-16T04:41:52;100942.59;;;-0.02;100.00
59170;BME280;52474;52.236;5.114;2024-01-16T04:44:17;100936.59;;;-0.04;100.00
59170;BME280;52474;52.236;5.114;2024-01-16T04:46:43;100941.13;;;-0.09;100.00
59170;BME280;52474;52.236;5.114;2024-01-16T04:49:09;100942.06;;;-0.10;100.00
59170;BME280;52474;52.236;5.114;2024-01-16T04:51:34;100940.66;;;-0.18;100.00
59170;BME280;52474;52.236;5.114;2024-01-16T04:54:00;100920.56;;;-0.37;100.00
59170;BME280;52474;52.236;5.114;2024-01-16T04:56:25;100934.28;;;-0.33;100.00
59170;BME280;52474;52.236;5.114;2024-01-16T04:58:51;100913.56;;;-0.58;100.00
59170;BME280;52474;52.236;5.114;2024-01-16T05:01:18;100912.53;;;-0.54;100.00
59170;BME280;52474;52.236;5.114;2024-01-16T05:03:43;100909.25;;;-0.59;100.00
59170;BME280;52474;52.236;5.114;2024-01-16T05:06:13;100925.50;;;-0.53;100.00
59170;BME280;52474;52.236;5.114;2024-01-16T05:08:41;100924.03;;;-0.60;100.00
59170;BME280;52474;52.236;5.114;2024-01-16T05:11:07;100922.09;;;-0.55;100.00
59170;BME280;52474;52.236;5.114;2024-01-16T05:13:33;100897.63;;;-0.73;100.00
59170;BME280;52474;52.236;5.114;2024-01-16T05:15:59;100876.44;;;-0.85;100.00
59170;BME280;52474;52.236;5.114;2024-01-16T05:18:24;100898.25;;;-0.66;100.00
59170;BME280;52474;52.236;5.114;2024-01-16T05:20:50;100902.50;;;-0.63;100.00
59170;BME280;52474;52.236;5.114;2024-01-16T05:23:16;100887.19;;;-0.71;100.00
59170;BME280;52474;52.236;5.114;2024-01-16T05:25:41;100865.63;;;-0.75;100.00
59170;BME280;52474;52.236;5.114;2024-01-16T05:28:07;100881.03;;;-0.69;100.00
59170;BME280;52474;52.236;5.114;2024-01-16T05:30:33;100890.75;;;-0.52;100.00
59170;BME280;52474;52.236;5.114;2024-01-16T05:32:59;100859.16;;;-0.65;100.00
59170;BME280;52474;52.236;5.114;2024-01-16T05:35:27;100886.03;;;-0.42;100.00
59170;BME280;52474;52.236;5.114;2024-01-16T05:37:53;100878.78;;;-0.34;100.00
59170;BME280;52474;52.236;5.114;2024-01-16T05:40:19;100889.88;;;-0.29;100.00
59170;BME280;52474;52.236;5.114;2024-01-16T05:42:45;100900.75;;;-0.19;100.00
59170;BME280;52474;52.236;5.114;2024-01-16T05:45:11;100867.09;;;-0.24;100.00
59170;BME280;52474;52.236;5.114;2024-01-16T05:47:36;100878.34;;;-0.01;100.00
59170;BME280;52474;52.236;5.114;2024-01-16T05:50:03;100873.66;;;0.07;100.00
59170;BME280;52474;52.236;5.114;2024-01-16T05:52:29;100888.72;;;0.21;100.00
59170;BME280;52474;52.236;5.114;2024-01-16T05:54:55;100888.59;;;0.24;100.00
59170;BME280;52474;52.236;5.114;2024-01-16T05:57:23;100858.50;;;0.17;100.00
59170;BME280;52474;52.236;5.114;2024-01-16T05:59:48;100891.78;;;0.31;100.00
59170;BME280;52474;52.236;5.114;2024-01-16T06:02:14;100894.44;;;0.29;100.00
59170;BME280;52474;52.236;5.114;2024-01-16T06:04:40;100909.06;;;0.33;100.00
59170;BME280;52474;52.236;5.114;2024-01-16T06:07:05;100910.94;;;0.30;100.00
59170;BME280;52474;52.236;5.114;2024-01-16T06:09:33;100893.59;;;0.29;100.00
59170;BME280;52474;52.236;5.114;2024-01-16T06:11:59;100874.31;;;0.12;100.00
59170;BME280;52474;52.236;5.114;2024-01-16T06:14:24;100895.56;;;0.24;100.00
59170;BME280;52474;52.236;5.114;2024-01-16T06:16:50;100866.44;;;0.14;100.00
59170;BME280;52474;52.236;5.114;2024-01-16T06:19:16;100885.94;;;0.26;100.00
59170;BME280;52474;52.236;5.114;2024-01-16T06:21:42;100889.25;;;0.29;100.00
59170;BME280;52474;52.236;5.114;2024-01-16T06:24:08;100903.13;;;0.30;100.00
59170;BME280;52474;52.236;5.114;2024-01-16T06:26:33;100876.63;;;0.20;100.00
59170;BME280;52474;52.236;5.114;2024-01-16T06:28:59;100856.09;;;0.12;100.00
59170;BME280;52474;52.236;5.114;2024-01-16T06:31:25;100885.75;;;0.30;100.00
59170;BME280;52474;52.236;5.114;2024-01-16T06:33:51;100855.06;;;0.16;100.00
59170;BME280;52474;52.236;5.114;2024-01-16T06:36:17;100874.34;;;0.33;100.00
59170;BME280;52474;52.236;5.114;2024-01-16T06:38:43;100880.53;;;0.30;100.00
59170;BME280;52474;52.236;5.114;2024-01-16T06:41:08;100857.41;;;0.23;100.00
59170;BME280;52474;52.236;5.114;2024-01-16T06:43:34;100881.97;;;0.37;100.00
59170;BME280;52474;52.236;5.114;2024-01-16T06:46:00;100886.44;;;0.34;100.00
59170;BME280;52474;52.236;5.114;2024-01-16T06:48:26;100894.47;;;0.50;100.00
59170;BME280;52474;52.236;5.114;2024-01-16T06:50:52;100853.88;;;0.24;100.00
59170;BME280;52474;52.236;5.114;2024-01-16T06:53:17;100866.72;;;0.28;100.00
59170;BME280;52474;52.236;5.114;2024-01-16T06:55:43;100865.75;;;0.31;100.00
59170;BME280;52474;52.236;5.114;2024-01-16T06:58:08;100892.84;;;0.47;100.00
59170;BME280;52474;52.236;5.114;2024-01-16T07:00:36;100889.31;;;0.48;100.00
59170;BME280;52474;52.236;5.114;2024-01-16T07:03:01;100858.91;;;0.28;100.00
59170;BME280;52474;52.236;5.114;2024-01-16T07:05:28;100849.47;;;0.26;100.00
59170;BME280;52474;52.236;5.114;2024-01-16T07:07:55;100829.16;;;0.13;100.00
59170;BME280;52474;52.236;5.114;2024-01-16T07:10:20;100886.53;;;0.53;100.00
59170;BME280;52474;52.236;5.114;2024-01-16T07:12:47;100890.69;;;0.57;100.00
59170;BME280;52474;52.236;5.114;2024-01-16T07:15:15;100891.78;;;0.51;100.00
59170;BME280;52474;52.236;5.114;2024-01-16T07:17:41;100890.09;;;0.50;100.00
59170;BME280;52474;52.236;5.114;2024-01-16T07:20:07;100880.00;;;0.42;100.00
59170;BME280;52474;52.236;5.114;2024-01-16T07:22:33;100903.00;;;0.53;100.00
59170;BME280;52474;52.236;5.114;2024-01-16T07:25:00;100903.91;;;0.52;100.00
59170;BME280;52474;52.236;5.114;2024-01-16T07:27:25;100900.47;;;0.52;100.00
59170;BME280;52474;52.236;5.114;2024-01-16T07:29:51;100915.25;;;0.51;100.00
59170;BME280;52474;52.236;5.114;2024-01-16T07:32:17;100846.59;;;0.11;100.00
59170;BME280;52474;52.236;5.114;2024-01-16T07:34:43;100878.06;;;0.27;100.00
59170;BME280;52474;52.236;5.114;2024-01-16T07:37:08;100894.06;;;0.38;100.00
59170;BME280;52474;52.236;5.114;2024-01-16T07:39:34;100908.59;;;0.44;100.00
59170;BME280;52474;52.236;5.114;2024-01-16T07:42:00;100875.66;;;0.23;100.00
59170;BME280;52474;52.236;5.114;2024-01-16T07:44:26;100913.03;;;0.42;100.00
59170;BME280;52474;52.236;5.114;2024-01-16T07:46:51;100884.16;;;0.26;100.00
59170;BME280;52474;52.236;5.114;2024-01-16T07:49:17;100914.13;;;0.36;100.00
59170;BME280;52474;52.236;5.114;2024-01-16T07:51:43;100890.69;;;0.16;100.00
59170;BME280;52474;52.236;5.114;2024-01-16T07:54:09;100911.72;;;0.32;100.00
59170;BME280;52474;52.236;5.114;2024-01-16T07:56:36;100908.44;;;0.27;100.00
59170;BME280;52474;52.236;5.114;2024-01-16T07:59:03;100906.03;;;0.22;100.00
59170;BME280;52474;52.236;5.114;2024-01-16T08:01:29;100914.44;;;0.29;100.00
59170;BME280;52474;52.236;5.114;2024-01-16T08:03:55;100910.03;;;0.31;100.00
59170;BME280;52474;52.236;5.114;2024-01-16T08:06:21;100890.25;;;0.05;100.00
59170;BME280;52474;52.236;5.114;2024-01-16T08:08:48;100920.63;;;0.26;100.00
59170;BME280;52474;52.236;5.114;2024-01-16T08:11:14;100915.56;;;0.23;100.00
59170;BME280;52474;52.236;5.114;2024-01-16T08:13:40;100915.03;;;0.15;100.00
59170;BME280;52474;52.236;5.114;2024-01-16T08:16:05;100912.22;;;0.19;100.00
59170;BME280;52474;52.236;5.114;2024-01-16T08:18:31;100905.38;;;0.17;100.00
59170;BME280;52474;52.236;5.114;2024-01-16T08:20:57;100908.53;;;0.25;100.00
59170;BME280;52474;52.236;5.114;2024-01-16T08:23:23;100912.53;;;0.12;100.00
59170;BME280;52474;52.236;5.114;2024-01-16T08:25:48;100884.88;;;-0.13;100.00
59170;BME280;52474;52.236;5.114;2024-01-16T08:28:17;100907.03;;;-0.03;100.00
59170;BME280;52474;52.236;5.114;2024-01-16T08:30:43;100884.34;;;-0.21;100.00
59170;BME280;52474;52.236;5.114;2024-01-16T08:33:10;100888.59;;;-0.18;100.00
59170;BME280;52474;52.236;5.114;2024-01-16T08:35:35;100916.06;;;-0.11;100.00
59170;BME280;52474;52.236;5.114;2024-01-16T08:38:01;100914.44;;;-0.14;100.00
59170;BME280;52474;52.236;5.114;2024-01-16T08:40:27;100861.38;;;-0.54;100.00
59170;BME280;52474;52.236;5.114;2024-01-16T08:42:52;100919.66;;;-0.14;100.00
59170;BME280;52474;52.236;5.114;2024-01-16T08:45:21;100857.25;;;-0.37;100.00
59170;BME280;52474;52.236;5.114;2024-01-16T08:47:46;100921.94;;;-0.06;100.00
59170;BME280;52474;52.236;5.114;2024-01-16T08:50:12;100913.63;;;0.06;100.00
59170;BME280;52474;52.236;5.114;2024-01-16T08:52:38;100839.41;;;-0.25;100.00
59170;BME280;52474;52.236;5.114;2024-01-16T08:55:04;100912.50;;;0.34;100.00
59170;BME280;52474;52.236;5.114;2024-01-16T08:57:30;100916.03;;;0.33;100.00
59170;BME280;52474;52.236;5.114;2024-01-16T08:59:56;100918.16;;;0.43;100.00
59170;BME280;52474;52.236;5.114;2024-01-16T09:02:22;100906.34;;;0.57;100.00
59170;BME280;52474;52.236;5.114;2024-01-16T09:04:49;100873.19;;;0.40;100.00
59170;BME280;52474;52.236;5.114;2024-01-16T09:07:16;100838.44;;;0.19;100.00
59170;BME280;52474;52.236;5.114;2024-01-16T09:09:42;100903.00;;;0.53;100.00
59170;BME280;52474;52.236;5.114;2024-01-16T09:12:11;100879.53;;;0.53;100.00
59170;BME280;52474;52.236;5.114;2024-01-16T09:14:37;100901.03;;;0.79;100.00
59170;BME280;52474;52.236;5.114;2024-01-16T09:17:03;100902.53;;;0.84;100.00
59170;BME280;52474;52.236;5.114;2024-01-16T09:19:29;100836.38;;;0.48;100.00
59170;BME280;52474;52.236;5.114;2024-01-16T09:21:55;100871.91;;;0.69;100.00
59170;BME280;52474;52.236;5.114;2024-01-16T09:24:21;100832.84;;;0.49;100.00
59170;BME280;52474;52.236;5.114;2024-01-16T09:26:47;100904.00;;;0.90;100.00
59170;BME280;52474;52.236;5.114;2024-01-16T09:29:13;100830.06;;;0.72;100.00
59170;BME280;52474;52.236;5.114;2024-01-16T09:31:40;100910.09;;;1.47;100.00
59170;BME280;52474;52.236;5.114;2024-01-16T09:34:06;100912.59;;;1.87;100.00
59170;BME280;52474;52.236;5.114;2024-01-16T09:36:32;100840.94;;;1.39;100.00
59170;BME280;52474;52.236;5.114;2024-01-16T09:39:02;100846.50;;;1.31;100.00
59170;BME280;52474;52.236;5.114;2024-01-16T09:41:44;100902.00;;;1.73;100.00
59170;BME280;52474;52.236;5.114;2024-01-16T09:44:10;100881.16;;;1.71;100.00
59170;BME280;52474;52.236;5.114;2024-01-16T09:46:37;100901.66;;;2.15;100.00
59170;BME280;52474;52.236;5.114;2024-01-16T09:49:03;100892.03;;;1.98;100.00
59170;BME280;52474;52.236;5.114;2024-01-16T09:51:29;100906.44;;;2.24;100.00
59170;BME280;52474;52.236;5.114;2024-01-16T09:53:55;100901.91;;;2.28;100.00
59170;BME280;52474;52.236;5.114;2024-01-16T09:56:22;100890.91;;;2.39;100.00
59170;BME280;52474;52.236;5.114;2024-01-16T09:58:54;100867.69;;;2.32;100.00
59170;BME280;52474;52.236;5.114;2024-01-16T10:01:23;100880.94;;;2.29;100.00
59170;BME280;52474;52.236;5.114;2024-01-16T10:03:50;100884.13;;;2.52;100.00
59170;BME280;52474;52.236;5.114;2024-01-16T10:06:17;100870.00;;;2.56;100.00
59170;BME280;52474;52.236;5.114;2024-01-16T10:08:45;100873.91;;;3.14;100.00
59170;BME280;52474;52.236;5.114;2024-01-16T10:11:11;100847.41;;;3.36;100.00
59170;BME280;52474;52.236;5.114;2024-01-16T10:13:37;100864.16;;;3.95;100.00
59170;BME280;52474;52.236;5.114;2024-01-16T10:16:03;100798.94;;;3.29;100.00
59170;BME280;52474;52.236;5.114;2024-01-16T10:18:29;100856.91;;;4.15;100.00
59170;BME280;52474;52.236;5.114;2024-01-16T10:20:56;100862.09;;;4.16;100.00
59170;BME280;52474;52.236;5.114;2024-01-16T10:23:32;100855.69;;;4.50;100.00
59170;BME280;52474;52.236;5.114;2024-01-16T10:26:11;100864.31;;;5.10;100.00
59170;BME280;52474;52.236;5.114;2024-01-16T10:28:41;100828.81;;;4.90;100.00
59170;BME280;52474;52.236;5.114;2024-01-16T10:31:11;100859.28;;;5.34;100.00
59170;BME280;52474;52.236;5.114;2024-01-16T10:33:37;100860.81;;;5.09;100.00
59170;BME280;52474;52.236;5.114;2024-01-16T10:36:14;100860.06;;;5.22;100.00
59170;BME280;52474;52.236;5.114;2024-01-16T10:38:42;100873.59;;;4.87;100.00
59170;BME280;52474;52.236;5.114;2024-01-16T10:41:13;100841.09;;;4.75;100.00
59170;BME280;52474;52.236;5.114;2024-01-16T10:43:41;100803.25;;;4.50;100.00
59170;BME280;52474;52.236;5.114;2024-01-16T10:48:34;100864.69;;;4.61;100.00
59170;BME280;52474;52.236;5.114;2024-01-16T10:51:02;100852.97;;;4.52;100.00
59170;BME280;52474;52.236;5.114;2024-01-16T10:53:32;100858.63;;;5.45;100.00
59170;BME280;52474;52.236;5.114;2024-01-16T10:56:00;100821.78;;;6.77;100.00
59170;BME280;52474;52.236;5.114;2024-01-16T10:58:26;100841.19;;;7.50;100.00
59170;BME280;52474;52.236;5.114;2024-01-16T11:00:54;100849.50;;;7.20;100.00
59170;BME280;52474;52.236;5.114;2024-01-16T11:03:29;100843.78;;;7.39;100.00
59170;BME280;52474;52.236;5.114;2024-01-16T11:06:00;100866.06;;;5.09;100.00
59170;BME280;52474;52.236;5.114;2024-01-16T11:08:27;100845.06;;;6.58;100.00
59170;BME280;52474;52.236;5.114;2024-01-16T11:10:58;100834.97;;;10.84;100.00
59170;BME280;52474;52.236;5.114;2024-01-16T11:13:25;100786.41;;;12.31;100.00
59170;BME280;52474;52.236;5.114;2024-01-16T11:15:51;100841.84;;;13.74;100.00
59170;BME280;52474;52.236;5.114;2024-01-16T11:18:17;100841.69;;;13.30;100.00
59170;BME280;52474;52.236;5.114;2024-01-16T11:20:45;100841.59;;;13.67;100.00
59170;BME280;52474;52.236;5.114;2024-01-16T11:23:12;100828.59;;;14.70;100.00
59170;BME280;52474;52.236;5.114;2024-01-16T11:25:38;100828.72;;;14.87;100.00
59170;BME280;52474;52.236;5.114;2024-01-16T11:28:14;100817.19;;;15.29;100.00
59170;BME280;52474;52.236;5.114;2024-01-16T11:30:41;100802.19;;;14.85;100.00
59170;BME280;52474;52.236;5.114;2024-01-16T11:35:58;100784.63;;;15.17;100.00
59170;BME280;52474;52.236;5.114;2024-01-16T11:38:24;100806.69;;;13.88;100.00
59170;BME280;52474;52.236;5.114;2024-01-16T11:40:53;100802.94;;;16.28;100.00
59170;BME280;52474;52.236;5.114;2024-01-16T11:43:39;100813.53;;;12.15;100.00
59170;BME280;52474;52.236;5.114;2024-01-16T11:46:06;100821.72;;;10.12;100.00
59170;BME280;52474;52.236;5.114;2024-01-16T11:48:35;100811.72;;;8.73;100.00
59170;BME280;52474;52.236;5.114;2024-01-16T11:51:24;100816.16;;;8.73;100.00
59170;BME280;52474;52.236;5.114;2024-01-16T11:53:50;100811.69;;;7.93;100.00
59170;BME280;52474;52.236;5.114;2024-01-16T12:01:50;100800.22;;;5.00;100.00
59170;BME280;52474;52.236;5.114;2024-01-16T12:04:18;100782.13;;;4.38;100.00
59170;BME280;52474;52.236;5.114;2024-01-16T12:06:57;100787.28;;;5.24;100.00
59170;BME280;52474;52.236;5.114;2024-01-16T12:09:26;100805.03;;;6.14;100.00
59170;BME280;52474;52.236;5.114;2024-01-16T12:12:00;100781.25;;;5.09;100.00
59170;BME280;52474;52.236;5.114;2024-01-16T12:14:29;100803.97;;;4.95;100.00
59170;BME280;52474;52.236;5.114;2024-01-16T12:17:11;100787.66;;;4.90;100.00
59170;BME280;52474;52.236;5.114;2024-01-16T12:19:38;100797.75;;;6.05;100.00
59170;BME280;52474;52.236;5.114;2024-01-16T12:22:08;100798.50;;;6.71;100.00
59170;BME280;52474;52.236;5.114;2024-01-16T12:24:36;100779.25;;;6.71;100.00
59170;BME280;52474;52.236;5.114;2024-01-16T12:27:02;100774.22;;;6.16;100.00
59170;BME280;52474;52.236;5.114;2024-01-16T12:29:28;100787.88;;;5.96;100.00
59170;BME280;52474;52.236;5.114;2024-01-16T12:32:08;100785.94;;;5.04;100.00
59170;BME280;52474;52.236;5.114;2024-01-16T12:34:35;100787.44;;;5.62;100.00
59170;BME280;52474;52.236;5.114;2024-01-16T12:37:08;100788.50;;;5.32;100.00
59170;BME280;52474;52.236;5.114;2024-01-16T12:39:34;100767.50;;;4.91;100.00
59170;BME280;52474;52.236;5.114;2024-01-16T12:42:01;100739.03;;;7.89;100.00
59170;BME280;52474;52.236;5.114;2024-01-16T12:44:28;100786.50;;;7.89;100.00
59170;BME280;52474;52.236;5.114;2024-01-16T12:46:55;100767.41;;;8.32;100.00
59170;BME280;52474;52.236;5.114;2024-01-16T12:49:24;100769.38;;;7.59;100.00
59170;BME280;52474;52.236;5.114;2024-01-16T12:51:50;100762.47;;;5.69;100.00
59170;BME280;52474;52.236;5.114;2024-01-16T12:54:17;100772.81;;;5.04;100.00
59170;BME280;52474;52.236;5.114;2024-01-16T12:56:44;100769.56;;;4.86;100.00